sensor_id;sensor_type;location;lat;lon;timestamp;P1;durP1;ratioP1;P2;durP2;ratioP2
21089;SDS011;10703;51.020;6.128;2023-03-15T00:01:01;16.27;;;9.07;;
21089;SDS011;10703;51.020;6.128;2023-03-15T00:03:31;8.63;;;7.80;;
21089;SDS011;10703;51.020;6.128;2023-03-15T00:06:02;9.93;;;8.33;;
21089;SDS011;10703;51.020;6.128;2023-03-15T00:08:29;15.07;;;9.40;;
21089;SDS011;10703;51.020;6.128;2023-03-15T00:10:58;11.60;;;8.43;;
21089;SDS011;10703;51.020;6.128;2023-03-15T00:13:25;16.13;;;9.10;;
21089;SDS011;10703;51.020;6.128;2023-03-15T00:15:55;16.07;;;10.07;;
21089;SDS011;10703;51.020;6.128;2023-03-15T00:18:23;10.23;;;8.27;;
21089;SDS011;10703;51.020;6.128;2023-03-15T00:20:51;17.77;;;9.40;;
21089;SDS011;10703;51.020;6.128;2023-03-15T00:23:17;19.30;;;9.60;;
21089;SDS011;10703;51.020;6.128;2023-03-15T00:25:45;13.80;;;8.87;;
21089;SDS011;10703;51.020;6.128;2023-03-15T00:28:12;16.67;;;9.13;;
21089;SDS011;10703;51.020;6.128;2023-03-15T00:30:39;14.57;;;8.97;;
21089;SDS011;10703;51.020;6.128;2023-03-15T00:33:06;13.27;;;8.03;;
21089;SDS011;10703;51.020;6.128;2023-03-15T00:35:32;15.77;;;7.87;;
21089;SDS011;10703;51.020;6.128;2023-03-15T00:38:03;9.53;;;7.10;;
21089;SDS011;10703;51.020;6.128;2023-03-15T00:40:30;9.83;;;8.50;;
21089;SDS011;10703;51.020;6.128;2023-03-15T00:42:57;8.00;;;7.20;;
21089;SDS011;10703;51.020;6.128;2023-03-15T00:45:24;12.90;;;8.33;;
21089;SDS011;10703;51.020;6.128;2023-03-15T00:47:51;13.83;;;8.40;;
21089;SDS011;10703;51.020;6.128;2023-03-15T00:50:20;7.93;;;6.93;;
21089;SDS011;10703;51.020;6.128;2023-03-15T00:52:47;15.30;;;8.20;;
21089;SDS011;10703;51.020;6.128;2023-03-15T00:55:16;11.80;;;9.10;;
21089;SDS011;10703;51.020;6.128;2023-03-15T00:57:44;7.63;;;7.03;;
21089;SDS011;10703;51.020;6.128;2023-03-15T01:00:13;8.60;;;7.47;;
21089;SDS011;10703;51.020;6.128;2023-03-15T01:02:43;12.97;;;8.57;;
21089;SDS011;10703;51.020;6.128;2023-03-15T01:05:11;8.00;;;7.30;;
21089;SDS011;10703;51.020;6.128;2023-03-15T01:07:38;12.23;;;9.43;;
21089;SDS011;10703;51.020;6.128;2023-03-15T01:10:05;7.53;;;6.77;;
21089;SDS011;10703;51.020;6.128;2023-03-15T01:12:32;8.67;;;7.60;;
21089;SDS011;10703;51.020;6.128;2023-03-15T01:15:00;7.40;;;6.80;;
21089;SDS011;10703;51.020;6.128;2023-03-15T01:17:30;8.30;;;7.50;;
21089;SDS011;10703;51.020;6.128;2023-03-15T01:19:57;7.77;;;7.17;;
21089;SDS011;10703;51.020;6.128;2023-03-15T01:22:25;8.90;;;8.10;;
21089;SDS011;10703;51.020;6.128;2023-03-15T01:24:52;10.83;;;8.13;;
21089;SDS011;10703;51.020;6.128;2023-03-15T01:27:18;9.13;;;8.23;;
21089;SDS011;10703;51.020;6.128;2023-03-15T01:29:45;8.77;;;8.07;;
21089;SDS011;10703;51.020;6.128;2023-03-15T01:32:11;11.27;;;9.90;;
21089;SDS011;10703;51.020;6.128;2023-03-15T01:34:38;10.57;;;9.47;;
21089;SDS011;10703;51.020;6.128;2023-03-15T01:37:04;10.47;;;9.47;;
21089;SDS011;10703;51.020;6.128;2023-03-15T01:39:31;8.73;;;7.83;;
21089;SDS011;10703;51.020;6.128;2023-03-15T01:41:58;11.60;;;10.33;;
21089;SDS011;10703;51.020;6.128;2023-03-15T01:44:44;20.63;;;10.83;;
21089;SDS011;10703;51.020;6.128;2023-03-15T01:47:13;10.33;;;8.83;;
21089;SDS011;10703;51.020;6.128;2023-03-15T01:49:40;11.23;;;10.07;;
21089;SDS011;10703;51.020;6.128;2023-03-15T01:52:11;15.70;;;9.33;;
21089;SDS011;10703;51.020;6.128;2023-03-15T01:54:42;17.50;;;10.67;;
21089;SDS011;10703;51.020;6.128;2023-03-15T01:59:54;11.50;;;10.30;;
21089;SDS011;10703;51.020;6.128;2023-03-15T02:02:51;11.67;;;9.90;;
21089;SDS011;10703;51.020;6.128;2023-03-15T02:05:23;14.93;;;11.20;;
21089;SDS011;10703;51.020;6.128;2023-03-15T02:07:53;13.83;;;10.47;;
21089;SDS011;10703;51.020;6.128;2023-03-15T02:10:32;16.80;;;11.07;;
21089;SDS011;10703;51.020;6.128;2023-03-15T02:13:02;12.60;;;10.03;;
21089;SDS011;10703;51.020;6.128;2023-03-15T02:15:30;14.40;;;9.80;;
21089;SDS011;10703;51.020;6.128;2023-03-15T02:17:57;19.53;;;11.57;;
21089;SDS011;10703;51.020;6.128;2023-03-15T02:23:06;6.93;;;6.27;;
21089;SDS011;10703;51.020;6.128;2023-03-15T02:28:12;9.23;;;8.40;;
21089;SDS011;10703;51.020;6.128;2023-03-15T02:30:41;8.10;;;7.20;;
21089;SDS011;10703;51.020;6.128;2023-03-15T02:33:14;8.57;;;7.73;;
21089;SDS011;10703;51.020;6.128;2023-03-15T02:35:49;8.07;;;7.47;;
21089;SDS011;10703;51.020;6.128;2023-03-15T02:38:16;9.43;;;7.47;;
21089;SDS011;10703;51.020;6.128;2023-03-15T02:40:44;9.17;;;8.27;;
21089;SDS011;10703;51.020;6.128;2023-03-15T02:43:13;10.67;;;7.70;;
21089;SDS011;10703;51.020;6.128;2023-03-15T02:45:44;8.43;;;7.53;;
21089;SDS011;10703;51.020;6.128;2023-03-15T02:48:11;9.93;;;8.93;;
21089;SDS011;10703;51.020;6.128;2023-03-15T02:50:38;9.87;;;8.83;;
21089;SDS011;10703;51.020;6.128;2023-03-15T02:53:04;10.40;;;9.30;;
21089;SDS011;10703;51.020;6.128;2023-03-15T02:55:31;7.53;;;6.83;;
21089;SDS011;10703;51.020;6.128;2023-03-15T02:57:58;7.53;;;6.83;;
21089;SDS011;10703;51.020;6.128;2023-03-15T03:00:26;8.10;;;7.40;;
21089;SDS011;10703;51.020;6.128;2023-03-15T03:02:53;8.00;;;7.27;;
21089;SDS011;10703;51.020;6.128;2023-03-15T03:05:20;7.47;;;6.77;;
21089;SDS011;10703;51.020;6.128;2023-03-15T03:07:47;6.43;;;6.03;;
21089;SDS011;10703;51.020;6.128;2023-03-15T03:10:16;6.30;;;5.83;;
21089;SDS011;10703;51.020;6.128;2023-03-15T03:12:44;5.50;;;5.10;;
21089;SDS011;10703;51.020;6.128;2023-03-15T03:15:11;7.47;;;6.87;;
21089;SDS011;10703;51.020;6.128;2023-03-15T03:17:38;6.40;;;5.90;;
21089;SDS011;10703;51.020;6.128;2023-03-15T03:20:09;7.00;;;6.40;;
21089;SDS011;10703;51.020;6.128;2023-03-15T03:22:39;8.57;;;7.87;;
21089;SDS011;10703;51.020;6.128;2023-03-15T03:25:06;6.97;;;6.47;;
21089;SDS011;10703;51.020;6.128;2023-03-15T03:27:37;6.50;;;6.00;;
21089;SDS011;10703;51.020;6.128;2023-03-15T03:30:07;7.43;;;6.80;;
21089;SDS011;10703;51.020;6.128;2023-03-15T03:32:36;9.00;;;7.57;;
21089;SDS011;10703;51.020;6.128;2023-03-15T03:35:03;10.07;;;7.70;;
21089;SDS011;10703;51.020;6.128;2023-03-15T03:37:29;9.60;;;8.63;;
21089;SDS011;10703;51.020;6.128;2023-03-15T03:39:56;11.10;;;8.30;;
21089;SDS011;10703;51.020;6.128;2023-03-15T03:42:23;11.97;;;10.57;;
21089;SDS011;10703;51.020;6.128;2023-03-15T03:44:50;10.90;;;9.83;;
21089;SDS011;10703;51.020;6.128;2023-03-15T03:47:19;9.80;;;8.80;;
21089;SDS011;10703;51.020;6.128;2023-03-15T03:49:46;12.37;;;11.03;;
21089;SDS011;10703;51.020;6.128;2023-03-15T03:52:12;14.43;;;11.30;;
21089;SDS011;10703;51.020;6.128;2023-03-15T03:54:39;17.90;;;12.10;;
21089;SDS011;10703;51.020;6.128;2023-03-15T03:57:08;15.07;;;11.87;;
21089;SDS011;10703;51.020;6.128;2023-03-15T03:59:35;16.37;;;12.53;;
21089;SDS011;10703;51.020;6.128;2023-03-15T04:02:02;16.93;;;13.13;;
21089;SDS011;10703;51.020;6.128;2023-03-15T04:04:28;22.17;;;14.77;;
21089;SDS011;10703;51.020;6.128;2023-03-15T04:06:55;17.43;;;13.57;;
21089;SDS011;10703;51.020;6.128;2023-03-15T04:09:21;14.20;;;11.67;;
21089;SDS011;10703;51.020;6.128;2023-03-15T04:11:49;14.40;;;12.00;;
21089;SDS011;10703;51.020;6.128;2023-03-15T04:14:16;16.97;;;14.33;;
21089;SDS011;10703;51.020;6.128;2023-03-15T04:16:43;17.50;;;15.20;;
21089;SDS011;10703;51.020;6.128;2023-03-15T04:19:09;17.40;;;15.17;;
21089;SDS011;10703;51.020;6.128;2023-03-15T04:21:37;18.07;;;15.03;;
21089;SDS011;10703;51.020;6.128;2023-03-15T04:24:04;19.03;;;15.50;;
21089;SDS011;10703;51.020;6.128;2023-03-15T04:26:31;18.27;;;15.10;;
21089;SDS011;10703;51.020;6.128;2023-03-15T04:28:59;16.57;;;13.67;;
21089;SDS011;10703;51.020;6.128;2023-03-15T04:31:25;20.20;;;15.93;;
21089;SDS011;10703;51.020;6.128;2023-03-15T04:33:52;22.47;;;16.17;;
21089;SDS011;10703;51.020;6.128;2023-03-15T04:36:20;20.77;;;15.03;;
21089;SDS011;10703;51.020;6.128;2023-03-15T04:38:47;21.93;;;16.47;;
21089;SDS011;10703;51.020;6.128;2023-03-15T04:41:15;24.30;;;16.47;;
21089;SDS011;10703;51.020;6.128;2023-03-15T04:43:43;21.93;;;16.40;;
21089;SDS011;10703;51.020;6.128;2023-03-15T04:46:10;19.13;;;16.30;;
21089;SDS011;10703;51.020;6.128;2023-03-15T04:48:36;14.37;;;12.20;;
21089;SDS011;10703;51.020;6.128;2023-03-15T04:51:03;11.87;;;10.60;;
21089;SDS011;10703;51.020;6.128;2023-03-15T04:53:30;15.10;;;12.00;;
21089;SDS011;10703;51.020;6.128;2023-03-15T04:55:56;19.70;;;14.63;;
21089;SDS011;10703;51.020;6.128;2023-03-15T04:58:23;17.13;;;14.30;;
21089;SDS011;10703;51.020;6.128;2023-03-15T05:00:51;16.80;;;12.67;;
21089;SDS011;10703;51.020;6.128;2023-03-15T05:03:18;15.33;;;13.17;;
21089;SDS011;10703;51.020;6.128;2023-03-15T05:05:44;17.60;;;13.40;;
21089;SDS011;10703;51.020;6.128;2023-03-15T05:08:11;17.37;;;13.67;;
21089;SDS011;10703;51.020;6.128;2023-03-15T05:10:37;16.03;;;12.13;;
21089;SDS011;10703;51.020;6.128;2023-03-15T05:13:04;20.03;;;14.87;;
21089;SDS011;10703;51.020;6.128;2023-03-15T05:15:31;20.73;;;14.90;;
21089;SDS011;10703;51.020;6.128;2023-03-15T05:17:57;18.97;;;13.67;;
21089;SDS011;10703;51.020;6.128;2023-03-15T05:20:24;17.13;;;13.77;;
21089;SDS011;10703;51.020;6.128;2023-03-15T05:22:50;20.97;;;14.33;;
21089;SDS011;10703;51.020;6.128;2023-03-15T05:25:18;21.50;;;14.00;;
21089;SDS011;10703;51.020;6.128;2023-03-15T05:27:45;23.23;;;14.47;;
21089;SDS011;10703;51.020;6.128;2023-03-15T05:30:12;18.33;;;14.83;;
21089;SDS011;10703;51.020;6.128;2023-03-15T05:32:42;21.17;;;14.93;;
21089;SDS011;10703;51.020;6.128;2023-03-15T05:35:10;18.90;;;14.53;;
21089;SDS011;10703;51.020;6.128;2023-03-15T05:37:37;19.70;;;14.30;;
21089;SDS011;10703;51.020;6.128;2023-03-15T05:40:04;17.77;;;14.23;;
21089;SDS011;10703;51.020;6.128;2023-03-15T05:42:33;20.33;;;14.67;;
21089;SDS011;10703;51.020;6.128;2023-03-15T05:45:00;22.83;;;15.07;;
21089;SDS011;10703;51.020;6.128;2023-03-15T05:47:27;24.73;;;15.83;;
21089;SDS011;10703;51.020;6.128;2023-03-15T05:49:53;22.57;;;15.73;;
21089;SDS011;10703;51.020;6.128;2023-03-15T05:52:20;22.80;;;15.77;;
21089;SDS011;10703;51.020;6.128;2023-03-15T05:54:46;19.83;;;13.33;;
21089;SDS011;10703;51.020;6.128;2023-03-15T05:57:13;20.17;;;14.13;;
21089;SDS011;10703;51.020;6.128;2023-03-15T05:59:40;20.50;;;13.73;;
21089;SDS011;10703;51.020;6.128;2023-03-15T06:02:06;23.10;;;15.13;;
21089;SDS011;10703;51.020;6.128;2023-03-15T06:04:33;20.00;;;12.87;;
21089;SDS011;10703;51.020;6.128;2023-03-15T06:07:01;19.30;;;12.83;;
21089;SDS011;10703;51.020;6.128;2023-03-15T06:09:28;15.30;;;12.33;;
21089;SDS011;10703;51.020;6.128;2023-03-15T06:11:54;14.23;;;10.13;;
21089;SDS011;10703;51.020;6.128;2023-03-15T06:14:21;15.07;;;11.87;;
21089;SDS011;10703;51.020;6.128;2023-03-15T06:16:47;15.93;;;12.23;;
21089;SDS011;10703;51.020;6.128;2023-03-15T06:19:14;16.60;;;12.13;;
21089;SDS011;10703;51.020;6.128;2023-03-15T06:21:40;16.67;;;10.40;;
21089;SDS011;10703;51.020;6.128;2023-03-15T06:24:07;15.73;;;12.43;;
21089;SDS011;10703;51.020;6.128;2023-03-15T06:26:34;14.63;;;11.47;;
21089;SDS011;10703;51.020;6.128;2023-03-15T06:29:01;17.30;;;11.53;;
21089;SDS011;10703;51.020;6.128;2023-03-15T06:31:27;14.03;;;9.77;;
21089;SDS011;10703;51.020;6.128;2023-03-15T06:33:54;18.30;;;12.10;;
21089;SDS011;10703;51.020;6.128;2023-03-15T06:36:21;14.60;;;10.97;;
21089;SDS011;10703;51.020;6.128;2023-03-15T06:38:49;16.37;;;11.70;;
21089;SDS011;10703;51.020;6.128;2023-03-15T06:41:19;17.50;;;10.70;;
21089;SDS011;10703;51.020;6.128;2023-03-15T06:43:46;17.53;;;12.53;;
21089;SDS011;10703;51.020;6.128;2023-03-15T06:46:13;14.07;;;11.33;;
21089;SDS011;10703;51.020;6.128;2023-03-15T06:48:39;16.93;;;10.83;;
21089;SDS011;10703;51.020;6.128;2023-03-15T06:51:06;21.73;;;12.93;;
21089;SDS011;10703;51.020;6.128;2023-03-15T06:53:32;15.97;;;11.87;;
21089;SDS011;10703;51.020;6.128;2023-03-15T06:55:59;15.20;;;11.50;;
21089;SDS011;10703;51.020;6.128;2023-03-15T06:58:26;16.03;;;11.60;;
21089;SDS011;10703;51.020;6.128;2023-03-15T07:00:52;18.90;;;12.63;;
21089;SDS011;10703;51.020;6.128;2023-03-15T07:03:19;17.13;;;11.30;;
21089;SDS011;10703;51.020;6.128;2023-03-15T07:05:47;20.30;;;12.80;;
21089;SDS011;10703;51.020;6.128;2023-03-15T07:08:17;19.37;;;11.80;;
21089;SDS011;10703;51.020;6.128;2023-03-15T07:10:44;14.67;;;11.47;;
21089;SDS011;10703;51.020;6.128;2023-03-15T07:13:11;15.30;;;11.87;;
21089;SDS011;10703;51.020;6.128;2023-03-15T07:15:38;17.70;;;12.00;;
21089;SDS011;10703;51.020;6.128;2023-03-15T07:18:05;14.63;;;11.73;;
21089;SDS011;10703;51.020;6.128;2023-03-15T07:20:32;17.60;;;11.83;;
21089;SDS011;10703;51.020;6.128;2023-03-15T07:23:01;17.77;;;11.73;;
21089;SDS011;10703;51.020;6.128;2023-03-15T07:25:28;17.20;;;12.07;;
21089;SDS011;10703;51.020;6.128;2023-03-15T07:27:54;16.73;;;12.27;;
21089;SDS011;10703;51.020;6.128;2023-03-15T07:30:21;18.13;;;11.90;;
21089;SDS011;10703;51.020;6.128;2023-03-15T07:32:47;21.07;;;13.40;;
21089;SDS011;10703;51.020;6.128;2023-03-15T07:35:14;20.27;;;14.73;;
21089;SDS011;10703;51.020;6.128;2023-03-15T07:37:43;22.20;;;13.73;;
21089;SDS011;10703;51.020;6.128;2023-03-15T07:40:10;16.07;;;10.93;;
21089;SDS011;10703;51.020;6.128;2023-03-15T07:42:38;21.60;;;13.37;;
21089;SDS011;10703;51.020;6.128;2023-03-15T07:45:05;22.90;;;12.47;;
21089;SDS011;10703;51.020;6.128;2023-03-15T07:47:33;21.33;;;13.20;;
21089;SDS011;10703;51.020;6.128;2023-03-15T07:50:00;24.13;;;13.67;;
21089;SDS011;10703;51.020;6.128;2023-03-15T07:52:26;23.53;;;14.00;;
21089;SDS011;10703;51.020;6.128;2023-03-15T07:54:53;28.87;;;14.67;;
21089;SDS011;10703;51.020;6.128;2023-03-15T07:57:20;27.60;;;15.73;;
21089;SDS011;10703;51.020;6.128;2023-03-15T07:59:46;25.83;;;15.63;;
21089;SDS011;10703;51.020;6.128;2023-03-15T08:02:13;27.93;;;15.83;;
21089;SDS011;10703;51.020;6.128;2023-03-15T08:04:40;24.53;;;14.63;;
21089;SDS011;10703;51.020;6.128;2023-03-15T08:07:07;22.10;;;13.63;;
21089;SDS011;10703;51.020;6.128;2023-03-15T08:09:33;24.17;;;14.80;;
21089;SDS011;10703;51.020;6.128;2023-03-15T08:12:00;23.27;;;15.17;;
21089;SDS011;10703;51.020;6.128;2023-03-15T08:14:27;14.77;;;11.73;;
21089;SDS011;10703;51.020;6.128;2023-03-15T08:16:55;20.43;;;13.00;;
21089;SDS011;10703;51.020;6.128;2023-03-15T08:19:21;25.13;;;13.90;;
21089;SDS011;10703;51.020;6.128;2023-03-15T08:21:48;22.07;;;12.93;;
21089;SDS011;10703;51.020;6.128;2023-03-15T08:24:14;18.97;;;12.63;;
21089;SDS011;10703;51.020;6.128;2023-03-15T08:26:41;15.60;;;12.10;;
21089;SDS011;10703;51.020;6.128;2023-03-15T08:29:08;17.23;;;12.10;;
21089;SDS011;10703;51.020;6.128;2023-03-15T08:31:35;23.93;;;13.03;;
21089;SDS011;10703;51.020;6.128;2023-03-15T08:34:01;18.97;;;13.07;;
21089;SDS011;10703;51.020;6.128;2023-03-15T08:36:30;16.13;;;12.43;;
21089;SDS011;10703;51.020;6.128;2023-03-15T08:38:57;15.77;;;12.27;;
21089;SDS011;10703;51.020;6.128;2023-03-15T08:41:24;13.30;;;10.30;;
21089;SDS011;10703;51.020;6.128;2023-03-15T08:43:50;15.33;;;11.57;;
21089;SDS011;10703;51.020;6.128;2023-03-15T08:46:17;15.27;;;11.50;;
21089;SDS011;10703;51.020;6.128;2023-03-15T08:48:47;14.40;;;11.10;;
21089;SDS011;10703;51.020;6.128;2023-03-15T08:51:14;13.73;;;10.30;;
21089;SDS011;10703;51.020;6.128;2023-03-15T08:53:40;15.37;;;10.57;;
21089;SDS011;10703;51.020;6.128;2023-03-15T08:56:07;13.53;;;9.23;;
21089;SDS011;10703;51.020;6.128;2023-03-15T08:58:34;10.73;;;8.30;;
21089;SDS011;10703;51.020;6.128;2023-03-15T09:01:01;12.93;;;8.97;;
21089;SDS011;10703;51.020;6.128;2023-03-15T09:03:30;9.23;;;8.33;;
21089;SDS011;10703;51.020;6.128;2023-03-15T09:05:59;9.47;;;8.00;;
21089;SDS011;10703;51.020;6.128;2023-03-15T09:08:26;11.90;;;8.70;;
21089;SDS011;10703;51.020;6.128;2023-03-15T09:10:56;9.30;;;7.60;;
21089;SDS011;10703;51.020;6.128;2023-03-15T09:13:23;12.13;;;8.20;;
21089;SDS011;10703;51.020;6.128;2023-03-15T09:15:50;9.40;;;7.93;;
21089;SDS011;10703;51.020;6.128;2023-03-15T09:18:18;10.33;;;8.60;;
21089;SDS011;10703;51.020;6.128;2023-03-15T09:20:46;9.07;;;7.60;;
21089;SDS011;10703;51.020;6.128;2023-03-15T09:23:12;8.27;;;7.23;;
21089;SDS011;10703;51.020;6.128;2023-03-15T09:25:40;9.90;;;7.77;;
21089;SDS011;10703;51.020;6.128;2023-03-15T09:28:09;12.43;;;8.17;;
21089;SDS011;10703;51.020;6.128;2023-03-15T09:30:36;7.50;;;6.80;;
21089;SDS011;10703;51.020;6.128;2023-03-15T09:33:04;8.87;;;6.77;;
21089;SDS011;10703;51.020;6.128;2023-03-15T09:35:31;13.20;;;6.87;;
21089;SDS011;10703;51.020;6.128;2023-03-15T09:37:58;13.57;;;6.50;;
21089;SDS011;10703;51.020;6.128;2023-03-15T09:40:29;6.90;;;5.40;;
21089;SDS011;10703;51.020;6.128;2023-03-15T09:50:56;7.73;;;6.07;;
21089;SDS011;10703;51.020;6.128;2023-03-15T09:53:31;8.17;;;5.73;;
21089;SDS011;10703;51.020;6.128;2023-03-15T09:56:06;8.40;;;5.40;;
21089;SDS011;10703;51.020;6.128;2023-03-15T09:58:46;9.13;;;5.50;;
21089;SDS011;10703;51.020;6.128;2023-03-15T10:01:15;5.30;;;4.80;;
21089;SDS011;10703;51.020;6.128;2023-03-15T10:03:45;46.20;;;30.57;;
21089;SDS011;10703;51.020;6.128;2023-03-15T10:06:19;10.43;;;5.40;;
21089;SDS011;10703;51.020;6.128;2023-03-15T10:08:58;7.33;;;4.83;;
21089;SDS011;10703;51.020;6.128;2023-03-15T10:11:33;5.90;;;4.67;;
21089;SDS011;10703;51.020;6.128;2023-03-15T10:14:29;8.13;;;4.60;;
21089;SDS011;10703;51.020;6.128;2023-03-15T10:17:25;5.40;;;3.77;;
21089;SDS011;10703;51.020;6.128;2023-03-15T10:20:28;8.33;;;4.37;;
21089;SDS011;10703;51.020;6.128;2023-03-15T10:23:02;7.90;;;4.40;;
21089;SDS011;10703;51.020;6.128;2023-03-15T10:25:39;8.80;;;4.10;;
21089;SDS011;10703;51.020;6.128;2023-03-15T10:30:33;7.97;;;4.80;;
21089;SDS011;10703;51.020;6.128;2023-03-15T10:35:33;11.30;;;4.50;;
21089;SDS011;10703;51.020;6.128;2023-03-15T10:38:00;6.37;;;4.50;;
21089;SDS011;10703;51.020;6.128;2023-03-15T10:40:38;6.13;;;4.60;;
21089;SDS011;10703;51.020;6.128;2023-03-15T10:43:12;7.43;;;4.80;;
21089;SDS011;10703;51.020;6.128;2023-03-15T10:48:31;7.80;;;5.00;;
21089;SDS011;10703;51.020;6.128;2023-03-15T10:53:55;8.70;;;5.07;;
21089;SDS011;10703;51.020;6.128;2023-03-15T10:56:25;6.53;;;4.97;;
21089;SDS011;10703;51.020;6.128;2023-03-15T10:58:54;5.43;;;4.40;;
21089;SDS011;10703;51.020;6.128;2023-03-15T11:01:37;6.72;;;3.88;;
21089;SDS011;10703;51.020;6.128;2023-03-15T11:04:17;6.07;;;4.07;;
21089;SDS011;10703;51.020;6.128;2023-03-15T11:06:45;7.57;;;4.13;;
21089;SDS011;10703;51.020;6.128;2023-03-15T11:09:25;8.30;;;4.50;;
21089;SDS011;10703;51.020;6.128;2023-03-15T11:11:53;7.10;;;4.00;;
21089;SDS011;10703;51.020;6.128;2023-03-15T11:17:17;8.70;;;4.90;;
21089;SDS011;10703;51.020;6.128;2023-03-15T11:19:55;9.87;;;4.73;;
21089;SDS011;10703;51.020;6.128;2023-03-15T11:22:24;5.83;;;4.77;;
21089;SDS011;10703;51.020;6.128;2023-03-15T11:24:51;10.63;;;5.23;;
21089;SDS011;10703;51.020;6.128;2023-03-15T11:27:23;6.83;;;4.90;;
21089;SDS011;10703;51.020;6.128;2023-03-15T11:29:53;9.23;;;5.47;;
21089;SDS011;10703;51.020;6.128;2023-03-15T11:32:24;10.87;;;5.37;;
21089;SDS011;10703;51.020;6.128;2023-03-15T11:34:54;6.07;;;4.97;;
21089;SDS011;10703;51.020;6.128;2023-03-15T11:40:20;5.70;;;4.23;;
21089;SDS011;10703;51.020;6.128;2023-03-15T11:43:04;6.97;;;4.13;;
21089;SDS011;10703;51.020;6.128;2023-03-15T11:45:35;5.93;;;4.20;;
21089;SDS011;10703;51.020;6.128;2023-03-15T11:50:51;5.45;;;3.95;;
21089;SDS011;10703;51.020;6.128;2023-03-15T11:53:19;6.53;;;3.60;;
21089;SDS011;10703;51.020;6.128;2023-03-15T11:55:48;7.80;;;3.92;;
21089;SDS011;10703;51.020;6.128;2023-03-15T11:58:26;5.38;;;3.30;;
21089;SDS011;10703;51.020;6.128;2023-03-15T12:01:04;4.68;;;3.17;;
21089;SDS011;10703;51.020;6.128;2023-03-15T12:03:37;3.95;;;3.35;;
21089;SDS011;10703;51.020;6.128;2023-03-15T12:08:47;7.82;;;3.40;;
21089;SDS011;10703;51.020;6.128;2023-03-15T12:16:30;5.60;;;3.60;;
21089;SDS011;10703;51.020;6.128;2023-03-15T12:19:10;4.90;;;3.53;;
21089;SDS011;10703;51.020;6.128;2023-03-15T12:21:59;3.85;;;3.45;;
21089;SDS011;10703;51.020;6.128;2023-03-15T12:24:29;6.28;;;3.75;;
21089;SDS011;10703;51.020;6.128;2023-03-15T12:27:02;5.03;;;3.90;;
21089;SDS011;10703;51.020;6.128;2023-03-15T12:29:43;4.97;;;4.00;;
21089;SDS011;10703;51.020;6.128;2023-03-15T12:32:14;4.50;;;3.90;;
21089;SDS011;10703;51.020;6.128;2023-03-15T12:34:48;6.93;;;4.40;;
21089;SDS011;10703;51.020;6.128;2023-03-15T12:37:23;5.03;;;4.00;;
21089;SDS011;10703;51.020;6.128;2023-03-15T12:39:59;6.17;;;4.17;;
21089;SDS011;10703;51.020;6.128;2023-03-15T12:53:20;6.80;;;4.20;;
21089;SDS011;10703;51.020;6.128;2023-03-15T12:55:51;6.35;;;4.50;;
21089;SDS011;10703;51.020;6.128;2023-03-15T12:58:34;7.30;;;4.10;;
21089;SDS011;10703;51.020;6.128;2023-03-15T13:01:03;5.70;;;4.28;;
21089;SDS011;10703;51.020;6.128;2023-03-15T13:03:33;4.13;;;3.75;;
21089;SDS011;10703;51.020;6.128;2023-03-15T13:08:50;6.23;;;4.60;;
21089;SDS011;10703;51.020;6.128;2023-03-15T13:11:35;4.97;;;4.47;;
21089;SDS011;10703;51.020;6.128;2023-03-15T13:17:23;5.57;;;3.97;;
21089;SDS011;10703;51.020;6.128;2023-03-15T13:26:01;4.93;;;4.00;;
21089;SDS011;10703;51.020;6.128;2023-03-15T13:28:49;7.40;;;3.80;;
21089;SDS011;10703;51.020;6.128;2023-03-15T13:31:24;5.03;;;3.60;;
21089;SDS011;10703;51.020;6.128;2023-03-15T13:33:57;3.97;;;3.58;;
21089;SDS011;10703;51.020;6.128;2023-03-15T13:36:45;4.07;;;3.50;;
21089;SDS011;10703;51.020;6.128;2023-03-15T13:39:21;6.22;;;3.65;;
21089;SDS011;10703;51.020;6.128;2023-03-15T13:41:55;7.28;;;3.90;;
21089;SDS011;10703;51.020;6.128;2023-03-15T13:44:27;4.57;;;3.95;;
21089;SDS011;10703;51.020;6.128;2023-03-15T13:46:55;4.63;;;4.13;;
21089;SDS011;10703;51.020;6.128;2023-03-15T13:49:23;5.80;;;4.00;;
21089;SDS011;10703;51.020;6.128;2023-03-15T13:51:55;6.20;;;3.50;;
21089;SDS011;10703;51.020;6.128;2023-03-15T13:57:07;6.93;;;3.67;;
21089;SDS011;10703;51.020;6.128;2023-03-15T14:02:32;5.47;;;3.40;;
21089;SDS011;10703;51.020;6.128;2023-03-15T14:05:06;6.88;;;4.20;;
21089;SDS011;10703;51.020;6.128;2023-03-15T14:07:36;3.60;;;3.25;;
21089;SDS011;10703;51.020;6.128;2023-03-15T14:10:07;4.18;;;3.42;;
21089;SDS011;10703;51.020;6.128;2023-03-15T14:12:44;4.35;;;3.67;;
21089;SDS011;10703;51.020;6.128;2023-03-15T14:15:54;4.50;;;3.60;;
21089;SDS011;10703;51.020;6.128;2023-03-15T14:18:10;5.20;;;3.80;;
21089;SDS011;10703;51.020;6.128;2023-03-15T14:20:44;4.85;;;3.65;;
21089;SDS011;10703;51.020;6.128;2023-03-15T14:23:16;4.45;;;3.60;;
21089;SDS011;10703;51.020;6.128;2023-03-15T14:25:54;5.95;;;3.92;;
21089;SDS011;10703;51.020;6.128;2023-03-15T14:28:31;8.68;;;4.03;;
21089;SDS011;10703;51.020;6.128;2023-03-15T14:30:58;5.22;;;3.75;;
21089;SDS011;10703;51.020;6.128;2023-03-15T14:33:36;3.97;;;3.67;;
21089;SDS011;10703;51.020;6.128;2023-03-15T14:36:06;6.03;;;3.83;;
21089;SDS011;10703;51.020;6.128;2023-03-15T14:38:54;4.00;;;3.70;;
21089;SDS011;10703;51.020;6.128;2023-03-15T14:43:52;5.80;;;3.87;;
21089;SDS011;10703;51.020;6.128;2023-03-15T14:46:19;4.50;;;4.00;;
21089;SDS011;10703;51.020;6.128;2023-03-15T14:48:46;4.23;;;3.83;;
21089;SDS011;10703;51.020;6.128;2023-03-15T14:51:16;6.72;;;3.88;;
21089;SDS011;10703;51.020;6.128;2023-03-15T14:53:44;7.20;;;3.90;;
21089;SDS011;10703;51.020;6.128;2023-03-15T14:56:13;4.47;;;4.07;;
21089;SDS011;10703;51.020;6.128;2023-03-15T14:58:41;5.30;;;3.80;;
21089;SDS011;10703;51.020;6.128;2023-03-15T15:01:12;4.50;;;3.60;;
21089;SDS011;10703;51.020;6.128;2023-03-15T15:03:44;6.22;;;3.85;;
21089;SDS011;10703;51.020;6.128;2023-03-15T15:06:13;4.15;;;3.78;;
21089;SDS011;10703;51.020;6.128;2023-03-15T15:08:42;4.72;;;3.70;;
21089;SDS011;10703;51.020;6.128;2023-03-15T15:11:10;8.07;;;4.38;;
21089;SDS011;10703;51.020;6.128;2023-03-15T15:13:37;3.95;;;3.63;;
21089;SDS011;10703;51.020;6.128;2023-03-15T15:16:05;5.47;;;3.53;;
21089;SDS011;10703;51.020;6.128;2023-03-15T15:18:33;4.22;;;3.60;;
21089;SDS011;10703;51.020;6.128;2023-03-15T15:23:43;5.82;;;3.50;;
21089;SDS011;10703;51.020;6.128;2023-03-15T15:26:24;4.95;;;3.60;;
21089;SDS011;10703;51.020;6.128;2023-03-15T15:28:52;4.10;;;3.70;;
21089;SDS011;10703;51.020;6.128;2023-03-15T15:31:20;6.15;;;3.88;;
21089;SDS011;10703;51.020;6.128;2023-03-15T15:33:49;4.88;;;3.67;;
21089;SDS011;10703;51.020;6.128;2023-03-15T15:36:23;4.22;;;3.70;;
21089;SDS011;10703;51.020;6.128;2023-03-15T15:38:52;4.30;;;3.90;;
21089;SDS011;10703;51.020;6.128;2023-03-15T15:41:26;7.70;;;4.10;;
21089;SDS011;10703;51.020;6.128;2023-03-15T15:43:56;7.03;;;4.27;;
21089;SDS011;10703;51.020;6.128;2023-03-15T15:46:23;4.30;;;3.90;;
21089;SDS011;10703;51.020;6.128;2023-03-15T15:48:50;4.20;;;3.87;;
21089;SDS011;10703;51.020;6.128;2023-03-15T15:51:19;8.47;;;4.50;;
21089;SDS011;10703;51.020;6.128;2023-03-15T15:53:54;4.60;;;4.20;;
21089;SDS011;10703;51.020;6.128;2023-03-15T15:56:25;4.60;;;4.10;;
21089;SDS011;10703;51.020;6.128;2023-03-15T15:58:59;4.67;;;4.23;;
21089;SDS011;10703;51.020;6.128;2023-03-15T16:01:29;4.80;;;4.27;;
21089;SDS011;10703;51.020;6.128;2023-03-15T16:03:56;4.90;;;4.50;;
21089;SDS011;10703;51.020;6.128;2023-03-15T16:06:24;5.43;;;4.47;;